Maiko — JD2630 — position and weather

sailwx.info

Track history (hours):
 
Tides and Currents Weather Stations Pressure Air Temp Water Temp Dewpoint Dewpoint Depression Visibility Wind Speed Wind Dir Waves Ship Positions

Maiko

Last reported at 2017-Dec-17 20:58 UTC. Time now 2017-Dec-17 21:27 UTC.
Position N 34°58' E 136°47'.

Length 85 m; draft 3.6 m.

Type: Cargo ship. MMSI: 431000527.

Date/timePositionNaut miles runAvg speedWind from/ knotsBaromVisibWave heightAir tempDewpointWater temp
2017-Dec-17 20:58N 34°58' E 136°47'0 0.0
2017-Dec-17 20:28N 34°58' E 136°47'0 0.2
2017-Dec-17 20:00N 34°58' E 136°47'510.9
2017-Dec-17 19:30N 34°52' E 136°47'611.7
2017-Dec-17 19:00N 34°47' E 136°48'510.8
2017-Dec-17 18:30N 34°42' E 136°51'1010.8
2017-Dec-17 17:37N 34°35' E 136°59'111.6
2017-Dec-17 17:30N 34°34' E 137°00'61 9.6
2017-Dec-17 11:09N 34°35' E 138°14'1 7.9
2017-Dec-17 11:00N 34°34' E 138°16'5 8.6
2017-Dec-17 10:28N 34°34' E 138°21'5 8.8
2017-Dec-17 09:57N 34°34' E 138°27'5 8.8
2017-Dec-17 09:22N 34°34' E 138°33'6 9.6
2017-Dec-17 08:43N 34°35' E 138°40'310.4
2017-Dec-17 08:26N 34°35' E 138°44'911.1
2017-Dec-17 07:39N 34°35' E 138°54'211.2
2017-Dec-17 07:30N 34°36' E 138°57'611.4
2017-Dec-17 06:56N 34°40' E 139°02'812.7
2017-Dec-17 06:19N 34°46' E 139°09'1011.9
2017-Dec-17 05:28N 34°53' E 139°17'711.5
2017-Dec-17 04:52N 34°57' E 139°25'411.4
2017-Dec-17 04:30N 34°59' E 139°29'611.9
2017-Dec-17 04:00N 35°02' E 139°35'612.7
2017-Dec-17 03:30N 35°06' E 139°41'713.0
2017-Dec-17 03:00N 35°11' E 139°46'612.1
2017-Dec-17 02:30N 35°17' E 139°45'612.3
2017-Dec-17 02:00N 35°23' E 139°41'2 2.9
2017-Dec-17 01:28N 35°24' E 139°41'0 0.0
2017-Dec-17 00:58N 35°24' E 139°41'0 0.0
2017-Dec-17 00:25N 35°24' E 139°41'0 0.0
2017-Dec-16 23:58N 35°24' E 139°41'0 0.0
2017-Dec-16 23:28N 35°24' E 139°41'1 2.9
2017-Dec-16 23:01N 35°23' E 139°41'3 5.3
2017-Dec-16 22:28N 35°21' E 139°44'0 0.0
2017-Dec-16 21:58N 35°21' E 139°44'0 0.0
2017-Dec-16 21:28N 35°21' E 139°44'0 0.0
2017-Dec-16 20:58N 35°21' E 139°44'0 0.0
2017-Dec-16 20:28N 35°21' E 139°44'0 0.0
2017-Dec-16 19:58N 35°21' E 139°44'0 0.0
2017-Dec-16 19:28N 35°21' E 139°44'0 0.2
2017-Dec-16 18:55N 35°21' E 139°44'0 0.0
2017-Dec-16 18:28N 35°21' E 139°44'0 0.1
2017-Dec-16 17:58N 35°21' E 139°44'0 0.0
2017-Dec-16 17:28N 35°21' E 139°44'0 0.0
2017-Dec-16 16:58N 35°21' E 139°44'0 0.4
2017-Dec-16 16:30N 35°21' E 139°44'510.6
2017-Dec-16 16:00N 35°16' E 139°46'612.0
2017-Dec-16 15:30N 35°10' E 139°47'611.8
2017-Dec-16 15:00N 35°05' E 139°44'713.1
2017-Dec-16 14:31N 35°01' E 139°38'714.1
2017-Dec-16 14:00N 34°57' E 139°31'815.1
2017-Dec-16 13:30N 34°53' E 139°23'715.0
2017-Dec-16 13:01N 34°48' E 139°16'914.0
2017-Dec-16 12:21N 34°42' E 139°07'513.8
2017-Dec-16 12:01N 34°39' E 139°03'815.0
2017-Dec-16 11:31N 34°35' E 138°55'813.3
2017-Dec-16 10:53N 34°34' E 138°45'511.9
2017-Dec-16 10:28N 34°34' E 138°39'612.9
2017-Dec-16 10:00N 34°34' E 138°32'613.1
2017-Dec-16 09:31N 34°34' E 138°24'713.1
2017-Dec-16 09:00N 34°34' E 138°16'713.8
2017-Dec-16 08:30N 34°34' E 138°08'713.4
2017-Dec-16 08:00N 34°35' E 137°60'713.1
2017-Dec-16 07:30N 34°35' E 137°52'2613.2
2017-Dec-16 05:30N 34°34' E 137°20'612.5
2017-Dec-16 04:59N 34°33' E 137°12'712.2
2017-Dec-16 04:25N 34°32' E 137°03'911.5
2017-Dec-16 03:38N 34°37' E 136°54'212.6
2017-Dec-16 03:30N 34°38' E 136°53'612.3
2017-Dec-16 03:00N 34°43' E 136°48'612.4
2017-Dec-16 02:30N 34°49' E 136°46'612.8
2017-Dec-16 02:00N 34°55' E 136°46'612.2
2017-Dec-16 01:30N 35°01' E 136°48'2 3.8
2017-Dec-16 00:58N 35°03' E 136°50'0 0.0
2017-Dec-16 00:28N 35°03' E 136°50'0 0.0
2017-Dec-15 23:58N 35°03' E 136°50'0 0.0
2017-Dec-15 23:30N 35°03' E 136°50'0 0.0
2017-Dec-15 23:00N 35°03' E 136°50'0 0.7
2017-Dec-15 22:30N 35°02' E 136°50'4 9.0
2017-Dec-15 22:00N 34°58' E 136°48'1 1.6
2017-Dec-15 21:30N 34°58' E 136°47'0 0.1
2017-Dec-15 21:00N 34°58' E 136°47'0 0.1
2017-Dec-15 20:30N 34°58' E 136°47'0 0.0
2017-Dec-15 20:00N 34°58' E 136°47'0 0.1
2017-Dec-15 19:30N 34°58' E 136°47'5 9.2
2017-Dec-15 19:00N 34°53' E 136°46'611.1
2017-Dec-15 18:30N 34°48' E 136°48'611.2
2017-Dec-15 18:00N 34°43' E 136°50'912.0
2017-Dec-15 17:13N 34°36' E 136°58'312.5
2017-Dec-15 17:00N 34°34' E 137°00'510.1
2017-Dec-15 16:30N 34°29' E 137°01'2311.2
2017-Dec-15 14:27N 34°09' E 136°48'511.1
2017-Dec-15 13:59N 34°05' E 136°43'85 9.3
2017-Dec-15 04:50N 33°52' E 135°02'412.9
2017-Dec-15 04:30N 33°56' E 135°00'613.0
2017-Dec-15 04:00N 34°03' E 134°60'1913.0
2017-Dec-15 02:30N 34°22' E 135°01'1912.7
2017-Dec-15 01:00N 34°37' E 135°16'4 7.8
2017-Dec-15 00:30N 34°41' E 135°16'36 6.0
2017-Dec-14 18:30N 34°08' E 134°58'611.0
2017-Dec-14 18:00N 34°02' E 134°59'510.7
2017-Dec-14 17:30N 33°57' E 135°00'17110.7
2017-Dec-14 01:33N 34°31' E 138°22'113.0
2017-Dec-14 01:26N 34°31' E 138°24'613.4
2017-Dec-14 00:58N 34°33' E 138°31'613.5
2017-Dec-14 00:31N 34°34' E 138°39'813.6
2017-Dec-13 23:53N 34°35' E 138°49'513.3
2017-Dec-13 23:30N 34°35' E 138°55'813.3
2017-Dec-13 22:56N 34°40' E 139°03'814.3
2017-Dec-13 22:23N 34°46' E 139°08'613.3
2017-Dec-13 21:55N 34°50' E 139°14'613.5
2017-Dec-13 21:30N 34°52' E 139°21'813.0
2017-Dec-13 20:53N 34°57' E 139°28'513.1
2017-Dec-13 20:30N 35°01' E 139°33'713.9
2017-Dec-13 20:00N 35°05' E 139°39'713.9
2017-Dec-13 19:30N 35°11' E 139°45'612.1
2017-Dec-13 19:01N 35°17' E 139°45'713.0
2017-Dec-13 18:30N 35°22' E 139°41'2 3.7
2017-Dec-13 17:59N 35°24' E 139°41'0 0.0
2017-Dec-13 17:29N 35°24' E 139°41'0 0.0
2017-Dec-13 16:59N 35°24' E 139°41'0 0.0
2017-Dec-13 16:29N 35°24' E 139°41'0 0.6
2017-Dec-13 16:01N 35°24' E 139°41'1 2.3
2017-Dec-13 15:30N 35°23' E 139°41'2 4.1
2017-Dec-13 15:00N 35°22' E 139°44'0 0.1
2017-Dec-13 14:30N 35°22' E 139°44'0 0.0
2017-Dec-13 14:00N 35°22' E 139°44'0 0.0
2017-Dec-13 13:30N 35°22' E 139°44'0 0.0
2017-Dec-13 13:00N 35°22' E 139°44'0 0.0
2017-Dec-13 12:30N 35°22' E 139°44'0 0.0
2017-Dec-13 12:00N 35°22' E 139°44'0 0.0
2017-Dec-13 11:30N 35°22' E 139°44'0 0.0
2017-Dec-13 11:00N 35°22' E 139°44'0 0.0
2017-Dec-13 10:30N 35°22' E 139°44'0 0.0
2017-Dec-13 10:00N 35°22' E 139°44'0 0.6
2017-Dec-13 09:30N 35°22' E 139°44'510.3
2017-Dec-13 09:01N 35°17' E 139°46'611.2
2017-Dec-13 08:30N 35°11' E 139°46'712.9
2017-Dec-13 08:00N 35°05' E 139°42'612.6
2017-Dec-13 07:31N 35°02' E 139°36'713.6
2017-Dec-13 06:59N 34°58' E 139°29'713.8
2017-Dec-13 06:28N 34°53' E 139°22'613.7
2017-Dec-13 06:00N 34°49' E 139°16'713.3
2017-Dec-13 05:28N 34°44' E 139°10'612.3
2017-Dec-13 04:59N 34°41' E 139°05'611.9
2017-Dec-13 04:31N 34°37' E 138°59'811.3
2017-Dec-13 03:50N 34°35' E 138°50'412.5
2017-Dec-13 03:31N 34°36' E 138°45'612.3
2017-Dec-13 03:00N 34°39' E 138°38'611.1
2017-Dec-13 02:30N 34°42' E 138°33'612.1
2017-Dec-13 02:00N 34°48' E 138°33'612.3
2017-Dec-13 01:30N 34°54' E 138°33'612.6
2017-Dec-13 01:01N 35°00' E 138°33'3 5.5
2017-Dec-13 00:31N 35°02' E 138°30'0 0.0
2017-Dec-13 00:00N 35°02' E 138°30'0 0.1
2017-Dec-12 23:30N 35°02' E 138°30'0 0.1
2017-Dec-12 23:00N 35°02' E 138°30'0 0.1
2017-Dec-12 22:30N 35°02' E 138°30'0 0.0
2017-Dec-12 22:00N 35°02' E 138°30'0 0.0
2017-Dec-12 21:30N 35°02' E 138°30'0 0.0
2017-Dec-12 21:00N 35°02' E 138°30'0 0.0
2017-Dec-12 20:30N 35°02' E 138°30'0 0.0
2017-Dec-12 20:00N 35°02' E 138°30'0 0.0
2017-Dec-12 19:30N 35°02' E 138°30'0 0.1
2017-Dec-12 19:00N 35°02' E 138°30'0 0.1
2017-Dec-12 18:30N 35°02' E 138°30'0 0.0
2017-Dec-12 18:00N 35°02' E 138°30'0 0.0
2017-Dec-12 17:30N 35°02' E 138°30'0 0.0
2017-Dec-12 17:00N 35°02' E 138°30'0 0.0
2017-Dec-12 16:30N 35°02' E 138°30'0 0.0
2017-Dec-12 16:00N 35°02' E 138°30'0 0.0
2017-Dec-12 15:30N 35°02' E 138°30'0 0.0
2017-Dec-12 15:00N 35°02' E 138°30'0 0.0
2017-Dec-12 14:30N 35°02' E 138°30'0 0.0
2017-Dec-12 14:00N 35°02' E 138°30'0 0.0
2017-Dec-12 13:30N 35°02' E 138°30'0 0.0
2017-Dec-12 13:00N 35°02' E 138°30'1 1.6
2017-Dec-12 12:30N 35°01' E 138°30'0 0.0
2017-Dec-12 11:59N 35°01' E 138°30'0 0.0
2017-Dec-12 11:29N 35°01' E 138°30'0 0.0
2017-Dec-12 10:59N 35°01' E 138°30'0 0.0
2017-Dec-12 10:29N 35°01' E 138°30'0 0.0
2017-Dec-12 09:59N 35°01' E 138°30'0 0.0
2017-Dec-12 09:29N 35°01' E 138°30'0 0.0
2017-Dec-12 08:59N 35°01' E 138°30'0 0.0
2017-Dec-12 08:29N 35°01' E 138°30'2 4.2
2017-Dec-12 08:01N 35°01' E 138°33'611.6
2017-Dec-12 07:30N 34°55' E 138°32'611.8
2017-Dec-12 07:00N 34°50' E 138°30'611.1
2017-Dec-12 06:30N 34°44' E 138°28'4 7.4
2017-Dec-12 05:54N 34°40' E 138°30'3 8.9
2017-Dec-12 05:30N 34°39' E 138°34'5 8.3
2017-Dec-12 04:53N 34°37' E 138°40'4 8.1
2017-Dec-12 04:26N 34°36' E 138°44'3 7.6
2017-Dec-12 04:00N 34°35' E 138°48'5 5.8
2017-Dec-12 03:03N 34°35' E 138°55'1 6.9
2017-Dec-12 02:58N 34°35' E 138°55'4 6.5
2017-Dec-12 02:22N 34°37' E 138°59'4 7.4
2017-Dec-12 01:52N 34°40' E 139°02'3 9.6
2017-Dec-12 01:30N 34°43' E 139°05'610.3
2017-Dec-12 00:55N 34°48' E 139°09'4 9.3
2017-Dec-12 00:27N 34°52' E 139°12'810.6
2017-Dec-11 23:43N 34°56' E 139°20'210.3
2017-Dec-11 23:30N 34°57' E 139°22'5 9.8
2017-Dec-11 23:00N 34°60' E 139°27'510.0
2017-Dec-11 22:30N 35°02' E 139°32'5 9.3
2017-Dec-11 22:00N 35°05' E 139°37'5 9.0
2017-Dec-11 21:30N 35°07' E 139°42'5 9.4
2017-Dec-11 21:00N 35°11' E 139°45'510.3
2017-Dec-11 20:30N 35°16' E 139°46'612.9
2017-Dec-11 20:00N 35°21' E 139°42'3 5.6
2017-Dec-11 19:30N 35°24' E 139°41'0 0.0
2017-Dec-11 19:00N 35°24' E 139°41'0 0.0
2017-Dec-11 18:30N 35°24' E 139°41'0 0.0
2017-Dec-11 18:00N 35°24' E 139°41'1 1.6
2017-Dec-11 17:30N 35°24' E 139°40'0 0.1
2017-Dec-11 17:00N 35°24' E 139°40'1 2.0
2017-Dec-11 16:30N 35°23' E 139°41'1 2.2
2017-Dec-11 16:00N 35°22' E 139°42'1 2.2
2017-Dec-11 15:30N 35°21' E 139°42'4 7.9
2017-Dec-11 15:00N 35°18' E 139°45'510.4
2017-Dec-11 14:30N 35°13' E 139°47'611.8
2017-Dec-11 14:00N 35°08' E 139°44'611.9
2017-Dec-11 13:30N 35°03' E 139°39'612.8
2017-Dec-11 13:00N 34°58' E 139°34'714.0
2017-Dec-11 12:30N 34°55' E 139°26'714.1
2017-Dec-11 12:00N 34°51' E 139°19'813.2
2017-Dec-11 11:25N 34°46' E 139°12'613.0
2017-Dec-11 10:59N 34°42' E 139°07'612.4
2017-Dec-11 10:29N 34°38' E 139°01'714.3
2017-Dec-11 10:01N 34°35' E 138°54'814.8
2017-Dec-11 09:29N 34°34' E 138°44'613.7
2017-Dec-11 09:00N 34°34' E 138°37'814.8
2017-Dec-11 08:29N 34°34' E 138°27'714.6
2017-Dec-11 07:59N 34°34' E 138°18'1514.8
2017-Dec-11 06:58N 34°35' E 138°00'715.2
2017-Dec-11 06:30N 34°36' E 137°52'2514.6
2017-Dec-11 04:48N 34°34' E 137°21'514.7
2017-Dec-11 04:29N 34°33' E 137°16'914.9
2017-Dec-11 03:53N 34°33' E 137°05'613.5
2017-Dec-11 03:25N 34°35' E 136°58'614.5
2017-Dec-11 03:00N 34°39' E 136°52'714.3
2017-Dec-11 02:31N 34°45' E 136°47'714.0
2017-Dec-11 02:01N 34°51' E 136°46'714.3
2017-Dec-11 01:31N 34°59' E 136°46'510.7
2017-Dec-11 01:01N 35°03' E 136°50'0 0.2
2017-Dec-11 00:30N 35°03' E 136°50'0 0.0
2017-Dec-11 00:00N 35°03' E 136°50'0 0.1
2017-Dec-10 23:30N 35°03' E 136°50'0 0.1
2017-Dec-10 23:00N 35°03' E 136°50'0 0.0
2017-Dec-10 22:30N 35°03' E 136°50'0 0.0
2017-Dec-10 22:00N 35°03' E 136°50'1 1.5
2017-Dec-10 21:31N 35°02' E 136°50'1 3.0
2017-Dec-10 21:00N 35°03' E 136°51'0 0.3
2017-Dec-10 20:30N 35°03' E 136°51'0 0.0
2017-Dec-10 20:00N 35°03' E 136°51'0 0.0
2017-Dec-10 19:30N 35°03' E 136°51'0 0.0
2017-Dec-10 19:00N 35°03' E 136°51'0 0.0
2017-Dec-10 18:30N 35°03' E 136°51'0 0.0
2017-Dec-10 18:00N 35°03' E 136°51'0 0.0
2017-Dec-10 17:30N 35°03' E 136°51'0 0.0
2017-Dec-10 17:00N 35°03' E 136°51'0 0.0
2017-Dec-10 16:30N 35°03' E 136°51'0 0.0
2017-Dec-10 16:00N 35°03' E 136°51'0 0.0
2017-Dec-10 15:30N 35°03' E 136°51'0 0.0
2017-Dec-10 15:00N 35°03' E 136°51'0 0.0
2017-Dec-10 14:30N 35°03' E 136°51'0 0.0
2017-Dec-10 14:00N 35°03' E 136°51'0 0.0
2017-Dec-10 13:30N 35°03' E 136°51'0 0.0
2017-Dec-10 13:00N 35°03' E 136°51'0 0.0
2017-Dec-10 12:30N 35°03' E 136°51'0 0.0
2017-Dec-10 11:57N 35°03' E 136°51'0 0.0
2017-Dec-10 11:30N 35°03' E 136°51'0 0.0
2017-Dec-10 11:00N 35°03' E 136°51'0 0.0
2017-Dec-10 10:30N 35°03' E 136°51'0 0.0
2017-Dec-10 10:00N 35°03' E 136°51'0 0.0
2017-Dec-10 09:30N 35°03' E 136°51'0 0.0
2017-Dec-10 09:00N 35°03' E 136°51'0 0.0
2017-Dec-10 08:30N 35°03' E 136°51'0 0.0
2017-Dec-10 08:00N 35°03' E 136°51'0 0.0
2017-Dec-10 07:30N 35°03' E 136°51'0 0.0
2017-Dec-10 07:00N 35°03' E 136°51'0 0.0
2017-Dec-10 06:30N 35°03' E 136°51'0 0.0
2017-Dec-10 06:00N 35°03' E 136°51'0 0.0
2017-Dec-10 05:30N 35°03' E 136°51'0 0.0
2017-Dec-10 05:00N 35°03' E 136°51'0 0.0
2017-Dec-10 04:30N 35°03' E 136°51'0 0.0
2017-Dec-10 04:00N 35°03' E 136°51'0 0.0
2017-Dec-10 03:30N 35°03' E 136°51'0 0.0
2017-Dec-10 03:00N 35°03' E 136°51'0 0.0
2017-Dec-10 02:30N 35°03' E 136°51'0 0.0
2017-Dec-10 02:00N 35°03' E 136°51'0 0.0
2017-Dec-10 01:30N 35°03' E 136°51'0 0.0
2017-Dec-10 01:00N 35°03' E 136°51'0 0.0
2017-Dec-10 00:30N 35°03' E 136°51'0 0.0
2017-Dec-10 00:00N 35°03' E 136°51'0 0.0
2017-Dec-09 23:30N 35°03' E 136°51'0 0.0
2017-Dec-09 23:00N 35°03' E 136°51'3 6.9
2017-Dec-09 22:30N 35°00' E 136°50'3 6.1
2017-Dec-09 22:00N 34°58' E 136°47'0 0.1
2017-Dec-09 21:30N 34°58' E 136°47'0 0.5
2017-Dec-09 21:00N 34°58' E 136°46'3 5.5
2017-Dec-09 20:30N 34°56' E 136°46'611.1
2017-Dec-09 20:00N 34°50' E 136°47'611.1
2017-Dec-09 19:30N 34°45' E 136°49'510.4
2017-Dec-09 19:00N 34°40' E 136°53'7 9.8
2017-Dec-09 18:15N 34°35' E 136°59'5810.1
2017-Dec-09 12:33N 34°34' E 138°09'2 8.8
2017-Dec-09 12:16N 34°34' E 138°12'2 9.5
2017-Dec-09 12:00N 34°33' E 138°15'6 9.5
2017-Dec-09 11:22N 34°33' E 138°22'4 9.5
2017-Dec-09 11:00N 34°34' E 138°26'5 9.6
2017-Dec-09 10:30N 34°34' E 138°32'5 9.0
2017-Dec-09 09:59N 34°35' E 138°38'5 8.9
2017-Dec-09 09:25N 34°35' E 138°44'4 8.7
2017-Dec-09 08:59N 34°35' E 138°48'5 7.9
2017-Dec-09 08:20N 34°35' E 138°55'3 7.6
2017-Dec-09 08:00N 34°36' E 138°58'610.0
2017-Dec-09 07:26N 34°40' E 139°02'810.4
2017-Dec-09 06:41N 34°46' E 139°09'210.1
2017-Dec-09 06:31N 34°47' E 139°10'911.1
2017-Dec-09 05:42N 34°54' E 139°18'310.9
2017-Dec-09 05:23N 34°56' E 139°21'410.8
2017-Dec-09 04:59N 34°58' E 139°26'510.8
2017-Dec-09 04:30N 35°01' E 139°31'612.2
2017-Dec-09 04:00N 35°04' E 139°37'612.2
2017-Dec-09 03:30N 35°08' E 139°43'612.6
2017-Dec-09 03:00N 35°14' E 139°46'611.7
2017-Dec-09 02:31N 35°19' E 139°43'611.0
2017-Dec-09 02:01N 35°24' E 139°41'0 0.1
2017-Dec-09 01:28N 35°24' E 139°41'0 0.0
2017-Dec-09 00:58N 35°24' E 139°41'0 0.0
2017-Dec-09 00:28N 35°24' E 139°41'1 1.3
2017-Dec-09 00:00N 35°23' E 139°40'0 0.9
2017-Dec-08 23:31N 35°23' E 139°40'3 5.0
2017-Dec-08 23:00N 35°21' E 139°42'510.7
2017-Dec-08 22:30N 35°17' E 139°45'611.1
2017-Dec-08 22:01N 35°11' E 139°47'611.5
2017-Dec-08 21:30N 35°06' E 139°45'611.0
2017-Dec-08 21:00N 35°01' E 139°43'610.9
2017-Dec-08 20:29N 34°55' E 139°42'5 9.6
2017-Dec-08 20:00N 34°51' E 139°40'612.4
2017-Dec-08 19:29N 34°52' E 139°33'612.9
2017-Dec-08 19:00N 34°52' E 139°25'612.7
2017-Dec-08 18:30N 34°49' E 139°18'612.4
2017-Dec-08 18:00N 34°45' E 139°12'611.5
2017-Dec-08 17:30N 34°41' E 139°07'612.0
2017-Dec-08 16:58N 34°38' E 139°00'1012.6
2017-Dec-08 16:12N 34°35' E 138°49'312.5
2017-Dec-08 15:59N 34°35' E 138°45'612.1
2017-Dec-08 15:30N 34°35' E 138°38'612.6
2017-Dec-08 15:00N 34°34' E 138°31'611.7
2017-Dec-08 14:29N 34°34' E 138°24'611.3
2017-Dec-08 14:00N 34°34' E 138°17'612.6
2017-Dec-08 13:30N 34°34' E 138°09'712.3
2017-Dec-08 12:56N 34°35' E 138°01'712.1
2017-Dec-08 12:20N 34°36' E 137°52'2612.2
2017-Dec-08 10:11N 34°35' E 137°20'311.9
2017-Dec-08 09:58N 34°34' E 137°17'912.0
2017-Dec-08 09:11N 34°33' E 137°06'211.9
2017-Dec-08 09:00N 34°33' E 137°03'611.2
2017-Dec-08 08:29N 34°36' E 136°57'612.1
2017-Dec-08 08:00N 34°39' E 136°52'612.2
2017-Dec-08 07:30N 34°44' E 136°48'611.8
2017-Dec-08 07:00N 34°50' E 136°45'611.8
2017-Dec-08 06:30N 34°55' E 136°46'612.1
2017-Dec-08 06:00N 35°00' E 136°50'2 4.5
2017-Dec-08 05:28N 35°03' E 136°50'0 0.0
2017-Dec-08 04:58N 35°03' E 136°50'0 0.0
2017-Dec-08 04:30N 35°03' E 136°50'2 4.9
2017-Dec-08 04:00N 35°01' E 136°50'4 8.9
2017-Dec-08 03:30N 34°57' E 136°47'611.6
2017-Dec-08 03:00N 34°51' E 136°47'611.3
2017-Dec-08 02:30N 34°46' E 136°49'611.2
2017-Dec-08 01:59N 34°41' E 136°53'1011.5
2017-Dec-08 01:09N 34°34' E 137°01'211.6
2017-Dec-08 01:00N 34°32' E 137°02'2612.2
2017-Dec-07 22:51N 34°09' E 136°48'411.9
2017-Dec-07 22:29N 34°06' E 136°44'612.1
2017-Dec-07 22:00N 34°02' E 136°39'  
Track history (hours):
 
Tides and Currents Weather Stations Pressure Air Temp Water Temp Dewpoint Dewpoint Depression Visibility Wind Speed Wind Dir Waves Ship Positions

Maiko

Last reported at 2017-Dec-17 20:58 UTC. Time now 2017-Dec-17 21:27 UTC.
Position N 34°58' E 136°47'.

Length 85 m; draft 3.6 m.

Type: Cargo ship. MMSI: 431000527.

Date/timePositionNaut miles runAvg speedWind from/ knotsBaromVisibWave heightAir tempDewpointWater temp
2017-Dec-17 20:58N 34°58' E 136°47'0 0.0
2017-Dec-17 20:28N 34°58' E 136°47'0 0.2
2017-Dec-17 20:00N 34°58' E 136°47'510.9
2017-Dec-17 19:30N 34°52' E 136°47'611.7
2017-Dec-17 19:00N 34°47' E 136°48'510.8
2017-Dec-17 18:30N 34°42' E 136°51'1010.8
2017-Dec-17 17:37N 34°35' E 136°59'111.6
2017-Dec-17 17:30N 34°34' E 137°00'61 9.6
2017-Dec-17 11:09N 34°35' E 138°14'1 7.9
2017-Dec-17 11:00N 34°34' E 138°16'5 8.6
2017-Dec-17 10:28N 34°34' E 138°21'5 8.8
2017-Dec-17 09:57N 34°34' E 138°27'5 8.8
2017-Dec-17 09:22N 34°34' E 138°33'6 9.6
2017-Dec-17 08:43N 34°35' E 138°40'310.4
2017-Dec-17 08:26N 34°35' E 138°44'911.1
2017-Dec-17 07:39N 34°35' E 138°54'211.2
2017-Dec-17 07:30N 34°36' E 138°57'611.4
2017-Dec-17 06:56N 34°40' E 139°02'812.7
2017-Dec-17 06:19N 34°46' E 139°09'1011.9
2017-Dec-17 05:28N 34°53' E 139°17'711.5
2017-Dec-17 04:52N 34°57' E 139°25'411.4
2017-Dec-17 04:30N 34°59' E 139°29'611.9
2017-Dec-17 04:00N 35°02' E 139°35'612.7
2017-Dec-17 03:30N 35°06' E 139°41'713.0
2017-Dec-17 03:00N 35°11' E 139°46'612.1
2017-Dec-17 02:30N 35°17' E 139°45'612.3
2017-Dec-17 02:00N 35°23' E 139°41'2 2.9
2017-Dec-17 01:28N 35°24' E 139°41'0 0.0
2017-Dec-17 00:58N 35°24' E 139°41'0 0.0
2017-Dec-17 00:25N 35°24' E 139°41'0 0.0
2017-Dec-16 23:58N 35°24' E 139°41'0 0.0
2017-Dec-16 23:28N 35°24' E 139°41'1 2.9
2017-Dec-16 23:01N 35°23' E 139°41'3 5.3
2017-Dec-16 22:28N 35°21' E 139°44'0 0.0
2017-Dec-16 21:58N 35°21' E 139°44'0 0.0
2017-Dec-16 21:28N 35°21' E 139°44'0 0.0
2017-Dec-16 20:58N 35°21' E 139°44'0 0.0
2017-Dec-16 20:28N 35°21' E 139°44'0 0.0
2017-Dec-16 19:58N 35°21' E 139°44'0 0.0
2017-Dec-16 19:28N 35°21' E 139°44'0 0.2
2017-Dec-16 18:55N 35°21' E 139°44'0 0.0
2017-Dec-16 18:28N 35°21' E 139°44'0 0.1
2017-Dec-16 17:58N 35°21' E 139°44'0 0.0
2017-Dec-16 17:28N 35°21' E 139°44'0 0.0
2017-Dec-16 16:58N 35°21' E 139°44'0 0.4
2017-Dec-16 16:30N 35°21' E 139°44'510.6
2017-Dec-16 16:00N 35°16' E 139°46'612.0
2017-Dec-16 15:30N 35°10' E 139°47'611.8
2017-Dec-16 15:00N 35°05' E 139°44'713.1
2017-Dec-16 14:31N 35°01' E 139°38'714.1
2017-Dec-16 14:00N 34°57' E 139°31'815.1
2017-Dec-16 13:30N 34°53' E 139°23'715.0
2017-Dec-16 13:01N 34°48' E 139°16'914.0
2017-Dec-16 12:21N 34°42' E 139°07'513.8
2017-Dec-16 12:01N 34°39' E 139°03'815.0
2017-Dec-16 11:31N 34°35' E 138°55'813.3
2017-Dec-16 10:53N 34°34' E 138°45'511.9
2017-Dec-16 10:28N 34°34' E 138°39'612.9
2017-Dec-16 10:00N 34°34' E 138°32'613.1
2017-Dec-16 09:31N 34°34' E 138°24'713.1
2017-Dec-16 09:00N 34°34' E 138°16'713.8
2017-Dec-16 08:30N 34°34' E 138°08'713.4
2017-Dec-16 08:00N 34°35' E 137°60'713.1
2017-Dec-16 07:30N 34°35' E 137°52'2613.2
2017-Dec-16 05:30N 34°34' E 137°20'612.5
2017-Dec-16 04:59N 34°33' E 137°12'712.2
2017-Dec-16 04:25N 34°32' E 137°03'911.5
2017-Dec-16 03:38N 34°37' E 136°54'212.6
2017-Dec-16 03:30N 34°38' E 136°53'612.3
2017-Dec-16 03:00N 34°43' E 136°48'612.4
2017-Dec-16 02:30N 34°49' E 136°46'612.8
2017-Dec-16 02:00N 34°55' E 136°46'612.2
2017-Dec-16 01:30N 35°01' E 136°48'2 3.8
2017-Dec-16 00:58N 35°03' E 136°50'0 0.0
2017-Dec-16 00:28N 35°03' E 136°50'0 0.0
2017-Dec-15 23:58N 35°03' E 136°50'0 0.0
2017-Dec-15 23:30N 35°03' E 136°50'0 0.0
2017-Dec-15 23:00N 35°03' E 136°50'0 0.7
2017-Dec-15 22:30N 35°02' E 136°50'4 9.0
2017-Dec-15 22:00N 34°58' E 136°48'1 1.6
2017-Dec-15 21:30N 34°58' E 136°47'0 0.1
2017-Dec-15 21:00N 34°58' E 136°47'0 0.1
2017-Dec-15 20:30N 34°58' E 136°47'0 0.0
2017-Dec-15 20:00N 34°58' E 136°47'0 0.1
2017-Dec-15 19:30N 34°58' E 136°47'5 9.2
2017-Dec-15 19:00N 34°53' E 136°46'611.1
2017-Dec-15 18:30N 34°48' E 136°48'611.2
2017-Dec-15 18:00N 34°43' E 136°50'912.0
2017-Dec-15 17:13N 34°36' E 136°58'312.5
2017-Dec-15 17:00N 34°34' E 137°00'510.1
2017-Dec-15 16:30N 34°29' E 137°01'2311.2
2017-Dec-15 14:27N 34°09' E 136°48'511.1
2017-Dec-15 13:59N 34°05' E 136°43'85 9.3
2017-Dec-15 04:50N 33°52' E 135°02'412.9
2017-Dec-15 04:30N 33°56' E 135°00'613.0
2017-Dec-15 04:00N 34°03' E 134°60'1913.0
2017-Dec-15 02:30N 34°22' E 135°01'1912.7
2017-Dec-15 01:00N 34°37' E 135°16'4 7.8
2017-Dec-15 00:30N 34°41' E 135°16'36 6.0
2017-Dec-14 18:30N 34°08' E 134°58'611.0
2017-Dec-14 18:00N 34°02' E 134°59'510.7
2017-Dec-14 17:30N 33°57' E 135°00'17110.7
2017-Dec-14 01:33N 34°31' E 138°22'113.0
2017-Dec-14 01:26N 34°31' E 138°24'613.4
2017-Dec-14 00:58N 34°33' E 138°31'613.5
2017-Dec-14 00:31N 34°34' E 138°39'813.6
2017-Dec-13 23:53N 34°35' E 138°49'513.3
2017-Dec-13 23:30N 34°35' E 138°55'813.3
2017-Dec-13 22:56N 34°40' E 139°03'814.3
2017-Dec-13 22:23N 34°46' E 139°08'613.3
2017-Dec-13 21:55N 34°50' E 139°14'613.5
2017-Dec-13 21:30N 34°52' E 139°21'813.0
2017-Dec-13 20:53N 34°57' E 139°28'513.1
2017-Dec-13 20:30N 35°01' E 139°33'713.9
2017-Dec-13 20:00N 35°05' E 139°39'713.9
2017-Dec-13 19:30N 35°11' E 139°45'612.1
2017-Dec-13 19:01N 35°17' E 139°45'713.0
2017-Dec-13 18:30N 35°22' E 139°41'2 3.7
2017-Dec-13 17:59N 35°24' E 139°41'0 0.0
2017-Dec-13 17:29N 35°24' E 139°41'0 0.0
2017-Dec-13 16:59N 35°24' E 139°41'0 0.0
2017-Dec-13 16:29N 35°24' E 139°41'0 0.6
2017-Dec-13 16:01N 35°24' E 139°41'1 2.3
2017-Dec-13 15:30N 35°23' E 139°41'2 4.1
2017-Dec-13 15:00N 35°22' E 139°44'0 0.1
2017-Dec-13 14:30N 35°22' E 139°44'0 0.0
2017-Dec-13 14:00N 35°22' E 139°44'0 0.0
2017-Dec-13 13:30N 35°22' E 139°44'0 0.0
2017-Dec-13 13:00N 35°22' E 139°44'0 0.0
2017-Dec-13 12:30N 35°22' E 139°44'0 0.0
2017-Dec-13 12:00N 35°22' E 139°44'0 0.0
2017-Dec-13 11:30N 35°22' E 139°44'0 0.0
2017-Dec-13 11:00N 35°22' E 139°44'0 0.0
2017-Dec-13 10:30N 35°22' E 139°44'0 0.0
2017-Dec-13 10:00N 35°22' E 139°44'0 0.6
2017-Dec-13 09:30N 35°22' E 139°44'510.3
2017-Dec-13 09:01N 35°17' E 139°46'611.2
2017-Dec-13 08:30N 35°11' E 139°46'712.9
2017-Dec-13 08:00N 35°05' E 139°42'612.6
2017-Dec-13 07:31N 35°02' E 139°36'713.6
2017-Dec-13 06:59N 34°58' E 139°29'713.8
2017-Dec-13 06:28N 34°53' E 139°22'613.7
2017-Dec-13 06:00N 34°49' E 139°16'713.3
2017-Dec-13 05:28N 34°44' E 139°10'612.3
2017-Dec-13 04:59N 34°41' E 139°05'611.9
2017-Dec-13 04:31N 34°37' E 138°59'811.3
2017-Dec-13 03:50N 34°35' E 138°50'412.5
2017-Dec-13 03:31N 34°36' E 138°45'612.3
2017-Dec-13 03:00N 34°39' E 138°38'611.1
2017-Dec-13 02:30N 34°42' E 138°33'612.1
2017-Dec-13 02:00N 34°48' E 138°33'612.3
2017-Dec-13 01:30N 34°54' E 138°33'612.6
2017-Dec-13 01:01N 35°00' E 138°33'3 5.5
2017-Dec-13 00:31N 35°02' E 138°30'0 0.0
2017-Dec-13 00:00N 35°02' E 138°30'0 0.1
2017-Dec-12 23:30N 35°02' E 138°30'0 0.1
2017-Dec-12 23:00N 35°02' E 138°30'0 0.1
2017-Dec-12 22:30N 35°02' E 138°30'0 0.0
2017-Dec-12 22:00N 35°02' E 138°30'0 0.0
2017-Dec-12 21:30N 35°02' E 138°30'0 0.0
2017-Dec-12 21:00N 35°02' E 138°30'0 0.0
2017-Dec-12 20:30N 35°02' E 138°30'0 0.0
2017-Dec-12 20:00N 35°02' E 138°30'0 0.0
2017-Dec-12 19:30N 35°02' E 138°30'0 0.1
2017-Dec-12 19:00N 35°02' E 138°30'0 0.1
2017-Dec-12 18:30N 35°02' E 138°30'0 0.0
2017-Dec-12 18:00N 35°02' E 138°30'0 0.0
2017-Dec-12 17:30N 35°02' E 138°30'0 0.0
2017-Dec-12 17:00N 35°02' E 138°30'0 0.0
2017-Dec-12 16:30N 35°02' E 138°30'0 0.0
2017-Dec-12 16:00N 35°02' E 138°30'0 0.0
2017-Dec-12 15:30N 35°02' E 138°30'0 0.0
2017-Dec-12 15:00N 35°02' E 138°30'0 0.0
2017-Dec-12 14:30N 35°02' E 138°30'0 0.0
2017-Dec-12 14:00N 35°02' E 138°30'0 0.0
2017-Dec-12 13:30N 35°02' E 138°30'0 0.0
2017-Dec-12 13:00N 35°02' E 138°30'1 1.6
2017-Dec-12 12:30N 35°01' E 138°30'0 0.0
2017-Dec-12 11:59N 35°01' E 138°30'0 0.0
2017-Dec-12 11:29N 35°01' E 138°30'0 0.0
2017-Dec-12 10:59N 35°01' E 138°30'0 0.0
2017-Dec-12 10:29N 35°01' E 138°30'0 0.0
2017-Dec-12 09:59N 35°01' E 138°30'0 0.0
2017-Dec-12 09:29N 35°01' E 138°30'0 0.0
2017-Dec-12 08:59N 35°01' E 138°30'0 0.0
2017-Dec-12 08:29N 35°01' E 138°30'2 4.2
2017-Dec-12 08:01N 35°01' E 138°33'611.6
2017-Dec-12 07:30N 34°55' E 138°32'611.8
2017-Dec-12 07:00N 34°50' E 138°30'611.1
2017-Dec-12 06:30N 34°44' E 138°28'4 7.4
2017-Dec-12 05:54N 34°40' E 138°30'3 8.9
2017-Dec-12 05:30N 34°39' E 138°34'5 8.3
2017-Dec-12 04:53N 34°37' E 138°40'4 8.1
2017-Dec-12 04:26N 34°36' E 138°44'3 7.6
2017-Dec-12 04:00N 34°35' E 138°48'5 5.8
2017-Dec-12 03:03N 34°35' E 138°55'1 6.9
2017-Dec-12 02:58N 34°35' E 138°55'4 6.5
2017-Dec-12 02:22N 34°37' E 138°59'4 7.4
2017-Dec-12 01:52N 34°40' E 139°02'3 9.6
2017-Dec-12 01:30N 34°43' E 139°05'610.3
2017-Dec-12 00:55N 34°48' E 139°09'4 9.3
2017-Dec-12 00:27N 34°52' E 139°12'810.6
2017-Dec-11 23:43N 34°56' E 139°20'210.3
2017-Dec-11 23:30N 34°57' E 139°22'5 9.8
2017-Dec-11 23:00N 34°60' E 139°27'510.0
2017-Dec-11 22:30N 35°02' E 139°32'5 9.3
2017-Dec-11 22:00N 35°05' E 139°37'5 9.0
2017-Dec-11 21:30N 35°07' E 139°42'5 9.4
2017-Dec-11 21:00N 35°11' E 139°45'510.3
2017-Dec-11 20:30N 35°16' E 139°46'612.9
2017-Dec-11 20:00N 35°21' E 139°42'3 5.6
2017-Dec-11 19:30N 35°24' E 139°41'0 0.0
2017-Dec-11 19:00N 35°24' E 139°41'0 0.0
2017-Dec-11 18:30N 35°24' E 139°41'0 0.0
2017-Dec-11 18:00N 35°24' E 139°41'1 1.6
2017-Dec-11 17:30N 35°24' E 139°40'0 0.1
2017-Dec-11 17:00N 35°24' E 139°40'1 2.0
2017-Dec-11 16:30N 35°23' E 139°41'1 2.2
2017-Dec-11 16:00N 35°22' E 139°42'1 2.2
2017-Dec-11 15:30N 35°21' E 139°42'4 7.9
2017-Dec-11 15:00N 35°18' E 139°45'510.4
2017-Dec-11 14:30N 35°13' E 139°47'611.8
2017-Dec-11 14:00N 35°08' E 139°44'611.9
2017-Dec-11 13:30N 35°03' E 139°39'612.8
2017-Dec-11 13:00N 34°58' E 139°34'714.0
2017-Dec-11 12:30N 34°55' E 139°26'714.1
2017-Dec-11 12:00N 34°51' E 139°19'813.2
2017-Dec-11 11:25N 34°46' E 139°12'613.0
2017-Dec-11 10:59N 34°42' E 139°07'612.4
2017-Dec-11 10:29N 34°38' E 139°01'714.3
2017-Dec-11 10:01N 34°35' E 138°54'814.8
2017-Dec-11 09:29N 34°34' E 138°44'613.7
2017-Dec-11 09:00N 34°34' E 138°37'814.8
2017-Dec-11 08:29N 34°34' E 138°27'714.6
2017-Dec-11 07:59N 34°34' E 138°18'1514.8
2017-Dec-11 06:58N 34°35' E 138°00'715.2
2017-Dec-11 06:30N 34°36' E 137°52'2514.6
2017-Dec-11 04:48N 34°34' E 137°21'514.7
2017-Dec-11 04:29N 34°33' E 137°16'914.9
2017-Dec-11 03:53N 34°33' E 137°05'613.5
2017-Dec-11 03:25N 34°35' E 136°58'614.5
2017-Dec-11 03:00N 34°39' E 136°52'714.3
2017-Dec-11 02:31N 34°45' E 136°47'714.0
2017-Dec-11 02:01N 34°51' E 136°46'714.3
2017-Dec-11 01:31N 34°59' E 136°46'510.7
2017-Dec-11 01:01N 35°03' E 136°50'0 0.2
2017-Dec-11 00:30N 35°03' E 136°50'0 0.0
2017-Dec-11 00:00N 35°03' E 136°50'0 0.1
2017-Dec-10 23:30N 35°03' E 136°50'0 0.1
2017-Dec-10 23:00N 35°03' E 136°50'0 0.0
2017-Dec-10 22:30N 35°03' E 136°50'0 0.0
2017-Dec-10 22:00N 35°03' E 136°50'1 1.5
2017-Dec-10 21:31N 35°02' E 136°50'1 3.0
2017-Dec-10 21:00N 35°03' E 136°51'0 0.3
2017-Dec-10 20:30N 35°03' E 136°51'0 0.0
2017-Dec-10 20:00N 35°03' E 136°51'0 0.0
2017-Dec-10 19:30N 35°03' E 136°51'0 0.0
2017-Dec-10 19:00N 35°03' E 136°51'0 0.0
2017-Dec-10 18:30N 35°03' E 136°51'0 0.0
2017-Dec-10 18:00N 35°03' E 136°51'0 0.0
2017-Dec-10 17:30N 35°03' E 136°51'0 0.0
2017-Dec-10 17:00N 35°03' E 136°51'0 0.0
2017-Dec-10 16:30N 35°03' E 136°51'0 0.0
2017-Dec-10 16:00N 35°03' E 136°51'0 0.0
2017-Dec-10 15:30N 35°03' E 136°51'0 0.0
2017-Dec-10 15:00N 35°03' E 136°51'0 0.0
2017-Dec-10 14:30N 35°03' E 136°51'0 0.0
2017-Dec-10 14:00N 35°03' E 136°51'0 0.0
2017-Dec-10 13:30N 35°03' E 136°51'0 0.0
2017-Dec-10 13:00N 35°03' E 136°51'0 0.0
2017-Dec-10 12:30N 35°03' E 136°51'0 0.0
2017-Dec-10 11:57N 35°03' E 136°51'0 0.0
2017-Dec-10 11:30N 35°03' E 136°51'0 0.0
2017-Dec-10 11:00N 35°03' E 136°51'0 0.0
2017-Dec-10 10:30N 35°03' E 136°51'0 0.0
2017-Dec-10 10:00N 35°03' E 136°51'0 0.0
2017-Dec-10 09:30N 35°03' E 136°51'0 0.0
2017-Dec-10 09:00N 35°03' E 136°51'0 0.0
2017-Dec-10 08:30N 35°03' E 136°51'0 0.0
2017-Dec-10 08:00N 35°03' E 136°51'0 0.0
2017-Dec-10 07:30N 35°03' E 136°51'0 0.0
2017-Dec-10 07:00N 35°03' E 136°51'0 0.0
2017-Dec-10 06:30N 35°03' E 136°51'0 0.0
2017-Dec-10 06:00N 35°03' E 136°51'0 0.0
2017-Dec-10 05:30N 35°03' E 136°51'0 0.0
2017-Dec-10 05:00N 35°03' E 136°51'0 0.0
2017-Dec-10 04:30N 35°03' E 136°51'0 0.0
2017-Dec-10 04:00N 35°03' E 136°51'0 0.0
2017-Dec-10 03:30N 35°03' E 136°51'0 0.0
2017-Dec-10 03:00N 35°03' E 136°51'0 0.0
2017-Dec-10 02:30N 35°03' E 136°51'0 0.0
2017-Dec-10 02:00N 35°03' E 136°51'0 0.0
2017-Dec-10 01:30N 35°03' E 136°51'0 0.0
2017-Dec-10 01:00N 35°03' E 136°51'0 0.0
2017-Dec-10 00:30N 35°03' E 136°51'0 0.0
2017-Dec-10 00:00N 35°03' E 136°51'0 0.0
2017-Dec-09 23:30N 35°03' E 136°51'0 0.0
2017-Dec-09 23:00N 35°03' E 136°51'3 6.9
2017-Dec-09 22:30N 35°00' E 136°50'3 6.1
2017-Dec-09 22:00N 34°58' E 136°47'0 0.1
2017-Dec-09 21:30N 34°58' E 136°47'0 0.5
2017-Dec-09 21:00N 34°58' E 136°46'3 5.5
2017-Dec-09 20:30N 34°56' E 136°46'611.1
2017-Dec-09 20:00N 34°50' E 136°47'611.1
2017-Dec-09 19:30N 34°45' E 136°49'510.4
2017-Dec-09 19:00N 34°40' E 136°53'7 9.8
2017-Dec-09 18:15N 34°35' E 136°59'5810.1
2017-Dec-09 12:33N 34°34' E 138°09'2 8.8
2017-Dec-09 12:16N 34°34' E 138°12'2 9.5
2017-Dec-09 12:00N 34°33' E 138°15'6 9.5
2017-Dec-09 11:22N 34°33' E 138°22'4 9.5
2017-Dec-09 11:00N 34°34' E 138°26'5 9.6
2017-Dec-09 10:30N 34°34' E 138°32'5 9.0
2017-Dec-09 09:59N 34°35' E 138°38'5 8.9
2017-Dec-09 09:25N 34°35' E 138°44'4 8.7
2017-Dec-09 08:59N 34°35' E 138°48'5 7.9
2017-Dec-09 08:20N 34°35' E 138°55'3 7.6
2017-Dec-09 08:00N 34°36' E 138°58'610.0
2017-Dec-09 07:26N 34°40' E 139°02'810.4
2017-Dec-09 06:41N 34°46' E 139°09'210.1
2017-Dec-09 06:31N 34°47' E 139°10'911.1
2017-Dec-09 05:42N 34°54' E 139°18'310.9
2017-Dec-09 05:23N 34°56' E 139°21'410.8
2017-Dec-09 04:59N 34°58' E 139°26'510.8
2017-Dec-09 04:30N 35°01' E 139°31'612.2
2017-Dec-09 04:00N 35°04' E 139°37'612.2
2017-Dec-09 03:30N 35°08' E 139°43'612.6
2017-Dec-09 03:00N 35°14' E 139°46'611.7
2017-Dec-09 02:31N 35°19' E 139°43'611.0
2017-Dec-09 02:01N 35°24' E 139°41'0 0.1
2017-Dec-09 01:28N 35°24' E 139°41'0 0.0
2017-Dec-09 00:58N 35°24' E 139°41'0 0.0
2017-Dec-09 00:28N 35°24' E 139°41'1 1.3
2017-Dec-09 00:00N 35°23' E 139°40'0 0.9
2017-Dec-08 23:31N 35°23' E 139°40'3 5.0
2017-Dec-08 23:00N 35°21' E 139°42'510.7
2017-Dec-08 22:30N 35°17' E 139°45'611.1
2017-Dec-08 22:01N 35°11' E 139°47'611.5
2017-Dec-08 21:30N 35°06' E 139°45'611.0
2017-Dec-08 21:00N 35°01' E 139°43'610.9
2017-Dec-08 20:29N 34°55' E 139°42'5 9.6
2017-Dec-08 20:00N 34°51' E 139°40'612.4
2017-Dec-08 19:29N 34°52' E 139°33'612.9
2017-Dec-08 19:00N 34°52' E 139°25'612.7
2017-Dec-08 18:30N 34°49' E 139°18'612.4
2017-Dec-08 18:00N 34°45' E 139°12'611.5
2017-Dec-08 17:30N 34°41' E 139°07'612.0
2017-Dec-08 16:58N 34°38' E 139°00'1012.6
2017-Dec-08 16:12N 34°35' E 138°49'312.5
2017-Dec-08 15:59N 34°35' E 138°45'612.1
2017-Dec-08 15:30N 34°35' E 138°38'612.6
2017-Dec-08 15:00N 34°34' E 138°31'611.7
2017-Dec-08 14:29N 34°34' E 138°24'611.3
2017-Dec-08 14:00N 34°34' E 138°17'612.6
2017-Dec-08 13:30N 34°34' E 138°09'712.3
2017-Dec-08 12:56N 34°35' E 138°01'712.1
2017-Dec-08 12:20N 34°36' E 137°52'2612.2
2017-Dec-08 10:11N 34°35' E 137°20'311.9
2017-Dec-08 09:58N 34°34' E 137°17'912.0
2017-Dec-08 09:11N 34°33' E 137°06'211.9
2017-Dec-08 09:00N 34°33' E 137°03'611.2
2017-Dec-08 08:29N 34°36' E 136°57'612.1
2017-Dec-08 08:00N 34°39' E 136°52'612.2
2017-Dec-08 07:30N 34°44' E 136°48'611.8
2017-Dec-08 07:00N 34°50' E 136°45'611.8
2017-Dec-08 06:30N 34°55' E 136°46'612.1
2017-Dec-08 06:00N 35°00' E 136°50'2 4.5
2017-Dec-08 05:28N 35°03' E 136°50'0 0.0
2017-Dec-08 04:58N 35°03' E 136°50'0 0.0
2017-Dec-08 04:30N 35°03' E 136°50'2 4.9
2017-Dec-08 04:00N 35°01' E 136°50'4 8.9
2017-Dec-08 03:30N 34°57' E 136°47'611.6
2017-Dec-08 03:00N 34°51' E 136°47'611.3
2017-Dec-08 02:30N 34°46' E 136°49'611.2
2017-Dec-08 01:59N 34°41' E 136°53'1011.5
2017-Dec-08 01:09N 34°34' E 137°01'211.6
2017-Dec-08 01:00N 34°32' E 137°02'2612.2
2017-Dec-07 22:51N 34°09' E 136°48'411.9
2017-Dec-07 22:29N 34°06' E 136°44'612.1
2017-Dec-07 22:00N 34°02' E 136°39'  

Dump ship's entire track history